createdAt,value
2023-01-26T00:01:19.591Z,99903.94
2023-01-26T00:03:47.570Z,99909.03
2023-01-26T00:06:18.460Z,99897.56
2023-01-26T00:08:50.558Z,99902.59
2023-01-26T00:11:20.455Z,99900.63
2023-01-26T00:13:50.783Z,99900.47
2023-01-26T00:16:18.609Z,99896.09
2023-01-26T00:18:46.519Z,99893.94
2023-01-26T00:21:16.376Z,99903.22
2023-01-26T00:23:44.272Z,99889.81
2023-01-26T00:26:15.057Z,99891.28
2023-01-26T00:28:43.498Z,99884.13
2023-01-26T00:31:13.538Z,99891.75
2023-01-26T00:33:41.517Z,99882.13
2023-01-26T00:36:11.217Z,99884.50
2023-01-26T00:38:39.538Z,99876.34
2023-01-26T00:41:09.652Z,99887.28
2023-01-26T00:43:37.384Z,99870.47
2023-01-26T00:46:05.370Z,99877.03
2023-01-26T00:48:33.088Z,99872.31
2023-01-26T00:51:01.156Z,99879.03
2023-01-26T00:53:29.134Z,99872.72
2023-01-26T00:55:58.501Z,99867.31
2023-01-26T00:58:29.073Z,99871.63
2023-01-26T01:00:57.330Z,99878.34
2023-01-26T01:03:26.719Z,99882.41
2023-01-26T01:05:54.570Z,99886.56
2023-01-26T01:08:22.392Z,99882.47
2023-01-26T01:10:50.258Z,99877.75
2023-01-26T01:13:18.107Z,99878.63
2023-01-26T01:15:45.932Z,99875.44
2023-01-26T01:18:16.094Z,99869.09
2023-01-26T01:20:43.946Z,99872.34
2023-01-26T01:23:11.763Z,99873.00
2023-01-26T01:25:42.348Z,99857.53
2023-01-26T01:28:10.138Z,99876.22
2023-01-26T01:30:38.812Z,99863.19
2023-01-26T01:33:06.654Z,99860.31
2023-01-26T01:35:36.320Z,99866.25
2023-01-26T01:38:04.309Z,99872.94
2023-01-26T01:40:32.204Z,99868.34
2023-01-26T01:43:00.060Z,99876.00
2023-01-26T01:45:37.749Z,99873.13
2023-01-26T01:48:06.093Z,99869.66
2023-01-26T01:50:37.346Z,99867.69
2023-01-26T01:53:05.197Z,99847.97
2023-01-26T01:55:32.957Z,99842.34
2023-01-26T01:58:00.996Z,99856.91
2023-01-26T02:00:29.014Z,99849.88
2023-01-26T02:03:34.237Z,99854.72
2023-01-26T02:06:09.448Z,99854.44
2023-01-26T02:08:39.239Z,99853.25
2023-01-26T02:11:10.171Z,99854.69
2023-01-26T02:13:38.343Z,99849.91
2023-01-26T02:16:06.665Z,99848.81
2023-01-26T02:18:34.466Z,99851.72
2023-01-26T02:21:04.206Z,99856.66
2023-01-26T02:23:51.974Z,99851.97
2023-01-26T02:26:23.496Z,99858.38
2023-01-26T02:28:52.512Z,99858.75
2023-01-26T02:31:20.861Z,99861.66
2023-01-26T02:33:49.165Z,99866.38
2023-01-26T02:36:23.659Z,99864.78
2023-01-26T02:39:12.772Z,99855.56
2023-01-26T02:41:59.393Z,99863.75
2023-01-26T02:44:27.630Z,99864.91
2023-01-26T02:46:55.481Z,99873.75
2023-01-26T02:49:41.545Z,99869.56
2023-01-26T02:52:09.526Z,99863.44
2023-01-26T02:54:55.717Z,99870.47
2023-01-26T02:57:23.634Z,99851.78
2023-01-26T02:59:52.518Z,99850.97
2023-01-26T03:02:20.372Z,99857.53
2023-01-26T03:04:48.236Z,99857.06
2023-01-26T03:07:16.488Z,99866.91
2023-01-26T03:09:44.308Z,99854.78
2023-01-26T03:12:12.125Z,99852.88
2023-01-26T03:14:39.951Z,99842.81
2023-01-26T03:17:07.852Z,99839.66
2023-01-26T03:19:55.947Z,99830.91
2023-01-26T03:22:41.990Z,99834.06
2023-01-26T03:25:28.583Z,99833.53
2023-01-26T03:27:58.821Z,99836.19
2023-01-26T03:30:26.791Z,99838.94
2023-01-26T03:32:54.706Z,99840.72
2023-01-26T03:35:23.339Z,99840.72
2023-01-26T03:37:55.225Z,99839.13
2023-01-26T03:41:01.478Z,99832.59
2023-01-26T03:43:47.900Z,99831.22
2023-01-26T03:46:33.989Z,99820.88
2023-01-26T03:49:20.543Z,99836.84
2023-01-26T03:52:10.564Z,99829.94
2023-01-26T03:54:56.623Z,99827.06
2023-01-26T03:57:26.873Z,99840.16
2023-01-26T03:59:54.717Z,99837.38
2023-01-26T04:02:42.356Z,99836.28
2023-01-26T04:05:30.332Z,99825.47
2023-01-26T04:08:24.081Z,99846.97
2023-01-26T04:11:03.325Z,99830.06
2023-01-26T04:13:49.947Z,99830.88
2023-01-26T04:16:42.842Z,99841.38
2023-01-26T04:19:28.754Z,99835.50
2023-01-26T04:21:57.109Z,99843.13
2023-01-26T04:24:25.948Z,99832.78
2023-01-26T04:26:56.946Z,99843.84
2023-01-26T04:29:29.517Z,99849.91
2023-01-26T04:31:57.503Z,99841.38
2023-01-26T04:34:26.300Z,99838.84
2023-01-26T04:36:54.186Z,99834.97
2023-01-26T04:39:25.325Z,99851.72
2023-01-26T04:41:56.229Z,99842.94
2023-01-26T04:44:24.105Z,99844.50
2023-01-26T04:46:52.903Z,99851.03
2023-01-26T04:49:20.871Z,99848.25
2023-01-26T04:51:49.194Z,99853.31
2023-01-26T04:54:17.340Z,99835.63
2023-01-26T04:56:45.988Z,99835.38
2023-01-26T04:59:14.967Z,99825.50
2023-01-26T05:01:45.065Z,99823.47
2023-01-26T05:04:16.045Z,99819.63
2023-01-26T05:06:46.944Z,99811.44
2023-01-26T05:09:14.905Z,99812.03
2023-01-26T05:11:45.039Z,99819.63
2023-01-26T05:14:32.321Z,99825.03
2023-01-26T05:17:18.374Z,99823.00
2023-01-26T05:19:55.715Z,99826.84
2023-01-26T05:22:39.579Z,99823.09
2023-01-26T05:25:30.216Z,99812.16
2023-01-26T05:28:03.438Z,99809.53
2023-01-26T05:30:31.542Z,99817.59
2023-01-26T05:33:04.936Z,99828.53
2023-01-26T05:35:33.752Z,99824.44
2023-01-26T05:38:01.833Z,99807.34
2023-01-26T05:40:32.574Z,99818.78
2023-01-26T05:43:00.599Z,99820.72
2023-01-26T05:45:49.069Z,99820.94
2023-01-26T05:48:18.488Z,99809.38
2023-01-26T05:50:50.963Z,99804.78
2023-01-26T05:53:21.079Z,99803.94
2023-01-26T05:55:49.635Z,99803.94
2023-01-26T05:58:20.979Z,99801.16
2023-01-26T06:00:49.792Z,99799.47
2023-01-26T06:03:24.630Z,99788.75
2023-01-26T06:05:55.678Z,99779.81
2023-01-26T06:08:39.283Z,99793.06
2023-01-26T06:11:33.107Z,99787.78
2023-01-26T06:14:36.343Z,99790.09
2023-01-26T06:17:04.330Z,99789.13
2023-01-26T06:19:32.644Z,99791.88
2023-01-26T06:22:02.999Z,99791.63
2023-01-26T06:24:32.430Z,99803.53
2023-01-26T06:27:00.430Z,99803.53
2023-01-26T06:29:28.452Z,99797.91
2023-01-26T06:31:56.375Z,99786.66
2023-01-26T06:34:26.359Z,99799.31
2023-01-26T06:36:54.305Z,99789.69
2023-01-26T06:39:28.317Z,99801.25
2023-01-26T06:41:56.439Z,99783.81
2023-01-26T06:44:24.280Z,99787.75
2023-01-26T06:46:52.304Z,99790.41
2023-01-26T06:49:20.196Z,99784.25
2023-01-26T06:52:05.413Z,99768.34
2023-01-26T06:54:48.610Z,99769.44
2023-01-26T06:57:54.603Z,99766.09
2023-01-26T07:00:41.347Z,99770.41
2023-01-26T07:03:15.138Z,99775.25
2023-01-26T07:05:42.824Z,99776.72
2023-01-26T07:08:10.601Z,99783.94
2023-01-26T07:10:38.496Z,99774.56
2023-01-26T07:13:06.353Z,99776.00
2023-01-26T07:15:34.360Z,99771.78
2023-01-26T07:18:02.290Z,99775.28
2023-01-26T07:20:30.451Z,99758.91
2023-01-26T07:23:00.855Z,99770.47
2023-01-26T07:25:28.762Z,99769.50
2023-01-26T07:28:00.159Z,99778.41
2023-01-26T07:30:28.033Z,99786.22
2023-01-26T07:32:56.050Z,99779.81
2023-01-26T07:35:23.711Z,99778.03
2023-01-26T07:37:51.477Z,99775.41
2023-01-26T07:40:19.547Z,99798.03
2023-01-26T07:42:47.555Z,99791.38
2023-01-26T07:45:41.201Z,99784.41
2023-01-26T07:48:10.102Z,99787.03
2023-01-26T07:50:37.791Z,99785.50
2023-01-26T07:53:05.839Z,99783.94
2023-01-26T07:55:33.720Z,99788.84
2023-01-26T07:58:01.599Z,99795.13
2023-01-26T08:00:29.657Z,99795.00
2023-01-26T08:02:57.676Z,99797.06
2023-01-26T08:05:25.637Z,99790.09
2023-01-26T08:07:53.637Z,99787.78
2023-01-26T08:10:21.433Z,99789.50
2023-01-26T08:12:49.243Z,99776.44
2023-01-26T08:15:17.239Z,99778.97
2023-01-26T08:17:45.055Z,99787.44
2023-01-26T08:20:14.489Z,99790.22
2023-01-26T08:22:42.297Z,99792.03
2023-01-26T08:25:10.431Z,99797.31
2023-01-26T08:27:38.216Z,99801.91
2023-01-26T08:30:07.138Z,99793.97
2023-01-26T08:32:34.960Z,99803.84
2023-01-26T08:35:02.681Z,99810.00
2023-01-26T08:37:30.604Z,99805.78
2023-01-26T08:39:58.455Z,99817.94
2023-01-26T08:42:26.143Z,99812.63
2023-01-26T08:44:54.019Z,99819.63
2023-01-26T08:47:21.906Z,99817.69
2023-01-26T08:49:49.686Z,99814.78
2023-01-26T08:52:17.987Z,99822.03
2023-01-26T08:54:45.667Z,99829.72
2023-01-26T08:57:13.563Z,99832.38
2023-01-26T08:59:41.271Z,99840.34
2023-01-26T09:02:10.999Z,99841.44
2023-01-26T09:04:38.949Z,99850.09
2023-01-26T09:07:06.803Z,99843.94
2023-01-26T09:09:34.724Z,99846.59
2023-01-26T09:12:02.589Z,99851.19
2023-01-26T09:14:30.456Z,99852.16
2023-01-26T09:16:58.287Z,99848.66
2023-01-26T09:19:25.975Z,99841.69
2023-01-26T09:21:54.526Z,99844.31
2023-01-26T09:24:22.880Z,99852.53
2023-01-26T09:26:50.797Z,99857.09
2023-01-26T09:29:18.814Z,99852.75
2023-01-26T09:31:46.895Z,99854.56
2023-01-26T09:34:14.878Z,99852.66
2023-01-26T09:36:42.587Z,99857.22
2023-01-26T09:39:10.983Z,99859.84
2023-01-26T09:41:53.013Z,99868.66
2023-01-26T09:44:24.762Z,99872.16
2023-01-26T09:47:03.440Z,99863.34
2023-01-26T09:49:50.467Z,99865.28
2023-01-26T09:52:34.334Z,99863.72
2023-01-26T09:55:07.356Z,99868.19
2023-01-26T09:57:56.181Z,99858.66
2023-01-26T10:00:37.432Z,99857.81
2023-01-26T10:03:27.573Z,99855.41
2023-01-26T10:06:04.356Z,99857.56
2023-01-26T10:09:20.694Z,99856.97
2023-01-26T10:11:59.397Z,99847.56
2023-01-26T10:14:51.082Z,99848.06
2023-01-26T10:17:21.856Z,99847.69
2023-01-26T10:19:51.792Z,99846.22
2023-01-26T10:22:55.517Z,99861.28
2023-01-26T10:25:28.760Z,99859.84
2023-01-26T10:27:56.619Z,99863.91
2023-01-26T10:30:24.641Z,99859.94
2023-01-26T10:32:53.115Z,99863.75
2023-01-26T10:35:22.764Z,99873.50
2023-01-26T10:37:52.750Z,99869.47
2023-01-26T10:40:20.685Z,99878.63
2023-01-26T10:42:59.075Z,99888.38
2023-01-26T10:45:33.922Z,99891.63
2023-01-26T10:48:27.322Z,99897.03
2023-01-26T10:50:55.382Z,99903.91
2023-01-26T10:53:30.368Z,99906.53
2023-01-26T10:56:05.994Z,99923.19
2023-01-26T10:58:43.095Z,99914.28
2023-01-26T11:01:12.797Z,99910.78
2023-01-26T11:03:43.766Z,99905.69
2023-01-26T11:06:15.236Z,99917.03
2023-01-26T11:08:43.273Z,99909.44
2023-01-26T11:11:27.612Z,99919.19
2023-01-26T11:14:21.781Z,99924.81
2023-01-26T11:17:20.686Z,99919.34
2023-01-26T11:20:07.986Z,99926.78
2023-01-26T11:22:51.417Z,99931.69
2023-01-26T11:25:32.364Z,99930.09
2023-01-26T11:28:13.637Z,99933.38
2023-01-26T11:30:44.224Z,99945.44
2023-01-26T11:33:23.504Z,99940.03
2023-01-26T11:36:10.313Z,99937.38
2023-01-26T11:38:42.703Z,99934.72
2023-01-26T11:41:17.672Z,99941.72
2023-01-26T11:44:08.461Z,99932.09
2023-01-26T11:46:57.995Z,99940.03
2023-01-26T11:49:41.869Z,99927.63
2023-01-26T11:52:32.908Z,99925.00
2023-01-26T11:55:21.966Z,99930.28
2023-01-26T11:58:15.891Z,99938.09
2023-01-26T12:00:50.829Z,99933.31
2023-01-26T12:03:24.505Z,99936.78
2023-01-26T12:05:54.856Z,99939.56
2023-01-26T12:08:41.257Z,99928.00
2023-01-26T12:11:25.999Z,99944.75
2023-01-26T12:14:00.607Z,99934.28
2023-01-26T12:16:37.449Z,99938.28
2023-01-26T12:19:18.978Z,99935.63
2023-01-26T12:21:46.926Z,99942.00
2023-01-26T12:24:48.380Z,99938.41
2023-01-26T12:27:24.834Z,99954.06
2023-01-26T12:30:03.115Z,99949.06
2023-01-26T12:32:31.087Z,99945.25
2023-01-26T12:34:59.525Z,99943.56
2023-01-26T12:37:37.286Z,99941.66
2023-01-26T12:40:30.804Z,99949.47
2023-01-26T12:43:20.494Z,99951.16
2023-01-26T12:45:49.654Z,99939.84
2023-01-26T12:48:21.333Z,99938.16
2023-01-26T12:50:55.173Z,99930.34
2023-01-26T12:53:43.377Z,99939.84
2023-01-26T12:56:13.381Z,99935.53
2023-01-26T12:58:45.795Z,99940.59
2023-01-26T13:01:23.857Z,99941.44
2023-01-26T13:03:56.776Z,99929.88
2023-01-26T13:06:26.181Z,99930.59
2023-01-26T13:09:06.402Z,99927.84
2023-01-26T13:11:54.464Z,99925.06
2023-01-26T13:14:32.874Z,99907.38
2023-01-26T13:17:15.878Z,99916.19
2023-01-26T13:19:43.784Z,99908.16
2023-01-26T13:22:26.329Z,99915.13
2023-01-26T13:24:57.823Z,99917.78
2023-01-26T13:27:31.647Z,99915.84
2023-01-26T13:29:59.498Z,99934.28
2023-01-26T13:32:27.142Z,99917.53
2023-01-26T13:34:58.527Z,99929.09
2023-01-26T13:37:49.912Z,99912.13
2023-01-26T13:40:21.948Z,99923.44
2023-01-26T13:42:58.869Z,99925.00
2023-01-26T13:46:17.866Z,99918.75
2023-01-26T13:48:46.698Z,99919.84
2023-01-26T13:51:18.319Z,99916.34
2023-01-26T13:53:55.422Z,99922.59
2023-01-26T13:56:29.246Z,99920.91
2023-01-26T13:59:19.811Z,99926.09
2023-01-26T14:01:49.551Z,99920.06
2023-01-26T14:04:21.241Z,99931.63
2023-01-26T14:07:10.442Z,99920.06
2023-01-26T14:10:02.163Z,99916.69
2023-01-26T14:12:43.820Z,99927.41
2023-01-26T14:15:25.149Z,99918.72
2023-01-26T14:18:00.028Z,99916.94
2023-01-26T14:20:30.389Z,99910.88
2023-01-26T14:23:19.821Z,99925.84
2023-01-26T14:25:58.080Z,99906.66
2023-01-26T14:28:29.158Z,99895.59
2023-01-26T14:31:00.967Z,99891.25
2023-01-26T14:33:29.187Z,99903.06
2023-01-26T14:36:01.656Z,99889.94
2023-01-26T14:38:30.571Z,99896.81
2023-01-26T14:40:59.852Z,99880.91
2023-01-26T14:43:28.236Z,99878.38
2023-01-26T14:46:04.561Z,99880.72
2023-01-26T14:48:34.493Z,99882.41
2023-01-26T14:51:02.467Z,99878.56
2023-01-26T14:53:30.830Z,99897.81
2023-01-26T14:55:58.709Z,99888.91
2023-01-26T14:58:30.040Z,99887.94
2023-01-26T15:00:59.513Z,99902.75
2023-01-26T15:03:28.833Z,99893.75
2023-01-26T15:06:17.882Z,99897.25
2023-01-26T15:08:59.801Z,99887.59
2023-01-26T15:11:56.542Z,99889.31
2023-01-26T15:15:00.070Z,99883.03
2023-01-26T15:17:38.034Z,99889.38
2023-01-26T15:20:31.817Z,99889.38
2023-01-26T15:22:59.694Z,99879.75
2023-01-26T15:25:28.458Z,99887.50
2023-01-26T15:28:00.249Z,99887.50
2023-01-26T15:30:30.049Z,99884.09
2023-01-26T15:32:58.204Z,99894.59
2023-01-26T15:35:35.251Z,99884.84
2023-01-26T15:38:04.819Z,99894.34
2023-01-26T15:40:32.717Z,99889.91
2023-01-26T15:43:16.259Z,99888.09
2023-01-26T15:45:54.777Z,99873.06
2023-01-26T15:48:22.908Z,99877.38
2023-01-26T15:50:51.113Z,99885.34
2023-01-26T15:53:22.447Z,99882.69
2023-01-26T15:55:53.290Z,99876.66
2023-01-26T15:58:21.174Z,99875.09
2023-01-26T16:00:49.043Z,99888.81
2023-01-26T16:03:18.068Z,99881.84
2023-01-26T16:05:48.414Z,99880.75
2023-01-26T16:08:17.110Z,99864.03
2023-01-26T16:10:45.388Z,99874.38
2023-01-26T16:13:14.469Z,99865.72
2023-01-26T16:15:50.278Z,99867.28
2023-01-26T16:18:18.382Z,99862.81
2023-01-26T16:20:47.521Z,99867.88
2023-01-26T16:23:25.280Z,99880.53
2023-01-26T16:25:53.189Z,99885.22
2023-01-26T16:28:21.470Z,99894.00
2023-01-26T16:30:50.562Z,99881.97
2023-01-26T16:33:21.609Z,99889.78
2023-01-26T16:35:49.390Z,99880.88
2023-01-26T16:38:17.563Z,99889.53
2023-01-26T16:40:46.043Z,99901.81
2023-01-26T16:43:17.000Z,99907.84
2023-01-26T16:45:44.815Z,99902.44
2023-01-26T16:48:16.314Z,99904.97
2023-01-26T16:50:44.461Z,99915.34
2023-01-26T16:53:33.390Z,99908.25
2023-01-26T16:56:01.273Z,99914.28
2023-01-26T16:58:30.958Z,99917.88
2023-01-26T17:00:58.928Z,99907.03
2023-01-26T17:03:26.719Z,99906.44
2023-01-26T17:05:56.421Z,99910.41
2023-01-26T17:08:24.229Z,99899.81
2023-01-26T17:11:02.205Z,99905.00
2023-01-26T17:13:31.729Z,99883.09
2023-01-26T17:15:59.663Z,99895.59
2023-01-26T17:18:27.509Z,99894.03
2023-01-26T17:20:55.324Z,99901.25
2023-01-26T17:23:23.009Z,99895.84
2023-01-26T17:25:50.756Z,99888.59
2023-01-26T17:28:18.694Z,99886.53
2023-01-26T17:30:46.501Z,99887.25
2023-01-26T17:33:14.296Z,99880.19
2023-01-26T17:35:42.172Z,99882.84
2023-01-26T17:38:10.079Z,99881.13
2023-01-26T17:40:37.973Z,99869.59
2023-01-26T17:43:05.904Z,99871.28
2023-01-26T17:45:33.566Z,99863.34
2023-01-26T17:48:01.317Z,99865.88
2023-01-26T17:50:29.155Z,99869.47
2023-01-26T17:52:56.935Z,99877.53
2023-01-26T17:55:24.823Z,99877.44
2023-01-26T17:57:52.578Z,99874.13
2023-01-26T18:00:21.056Z,99865.16
2023-01-26T18:02:48.845Z,99858.25
2023-01-26T18:05:16.805Z,99859.94
2023-01-26T18:07:44.664Z,99851.16
2023-01-26T18:10:15.470Z,99859.44
2023-01-26T18:12:43.272Z,99862.81
2023-01-26T18:15:11.876Z,99860.06
2023-01-26T18:17:39.577Z,99864.38
2023-01-26T18:20:08.133Z,99856.34
2023-01-26T18:22:35.817Z,99858.03
2023-01-26T18:25:03.707Z,99855.47
2023-01-26T18:27:31.425Z,99858.25
2023-01-26T18:29:59.200Z,99860.78
2023-01-26T18:32:27.157Z,99852.81
2023-01-26T18:34:54.942Z,99849.97
2023-01-26T18:37:22.615Z,99838.53
2023-01-26T18:39:50.509Z,99835.16
2023-01-26T18:42:18.409Z,99840.34
2023-01-26T18:44:46.324Z,99830.59
2023-01-26T18:47:14.391Z,99828.78
2023-01-26T18:49:42.252Z,99827.81
2023-01-26T18:52:10.104Z,99834.06
2023-01-26T18:54:37.964Z,99831.91
2023-01-26T18:57:05.883Z,99825.75
2023-01-26T18:59:33.658Z,99822.28
2023-01-26T19:02:01.486Z,99828.28
2023-01-26T19:04:29.760Z,99827.31
2023-01-26T19:06:57.624Z,99823.72
2023-01-26T19:09:29.510Z,99820.47
2023-01-26T19:11:58.696Z,99835.28
2023-01-26T19:14:27.025Z,99827.09
2023-01-26T19:16:55.030Z,99820.81
2023-01-26T19:19:23.089Z,99809.38
2023-01-26T19:21:50.922Z,99806.00
2023-01-26T19:24:18.790Z,99806.84
2023-01-26T19:26:46.625Z,99795.28
2023-01-26T19:29:14.483Z,99798.06
2023-01-26T19:31:42.313Z,99801.44
2023-01-26T19:34:13.745Z,99798.66
2023-01-26T19:36:41.624Z,99790.72
2023-01-26T19:39:11.278Z,99793.47
2023-01-26T19:41:39.517Z,99796.75
2023-01-26T19:44:07.559Z,99791.34
2023-01-26T19:46:35.411Z,99788.69
2023-01-26T19:49:03.330Z,99787.00
2023-01-26T19:51:31.739Z,99781.72
2023-01-26T19:53:59.942Z,99769.50
2023-01-26T19:56:29.788Z,99777.38
2023-01-26T19:59:02.137Z,99781.72
2023-01-26T20:01:30.624Z,99766.66
2023-01-26T20:04:00.527Z,99777.97
2023-01-26T20:06:30.672Z,99760.25
2023-01-26T20:08:58.731Z,99756.66
2023-01-26T20:11:29.143Z,99755.69
2023-01-26T20:14:09.008Z,99749.16
2023-01-26T20:16:37.300Z,99739.66
2023-01-26T20:19:05.278Z,99750.00
2023-01-26T20:21:33.482Z,99747.00
2023-01-26T20:24:05.705Z,99752.31
2023-01-26T20:26:34.220Z,99755.69
2023-01-26T20:29:01.924Z,99742.66
2023-01-26T20:31:30.080Z,99753.50
2023-01-26T20:33:58.802Z,99749.16
2023-01-26T20:36:27.654Z,99752.91
2023-01-26T20:38:55.588Z,99758.91
2023-01-26T20:41:27.801Z,99757.94
2023-01-26T20:44:00.278Z,99752.19
2023-01-26T20:46:37.114Z,99750.97
2023-01-26T20:49:05.544Z,99748.56
2023-01-26T20:51:36.059Z,99739.66
2023-01-26T20:54:06.728Z,99739.06
2023-01-26T20:56:34.752Z,99726.53
2023-01-26T20:59:02.706Z,99729.19
2023-01-26T21:01:30.891Z,99714.59
2023-01-26T21:03:58.726Z,99721.22
2023-01-26T21:06:28.289Z,99719.75
2023-01-26T21:08:57.278Z,99717.97
2023-01-26T21:11:26.635Z,99720.50
2023-01-26T21:13:58.330Z,99710.13
2023-01-26T21:16:26.290Z,99713.50
2023-01-26T21:18:54.604Z,99708.09
2023-01-26T21:21:22.470Z,99718.56
2023-01-26T21:23:50.605Z,99704.13
2023-01-26T21:26:23.749Z,99713.41
2023-01-26T21:28:56.132Z,99705.81
2023-01-26T21:31:25.726Z,99718.78
2023-01-26T21:33:53.709Z,99717.00
2023-01-26T21:36:23.218Z,99714.34
2023-01-26T21:38:52.546Z,99708.31
2023-01-26T21:41:49.222Z,99695.91
2023-01-26T21:44:18.760Z,99698.81
2023-01-26T21:46:46.850Z,99700.38
2023-01-26T21:49:14.929Z,99699.53
2023-01-26T21:52:01.838Z,99687.38
2023-01-26T21:54:30.589Z,99678.72
2023-01-26T21:56:58.773Z,99683.31
2023-01-26T21:59:26.746Z,99682.34
2023-01-26T22:01:55.549Z,99683.16
2023-01-26T22:04:28.494Z,99681.22
2023-01-26T22:07:00.245Z,99677.63
2023-01-26T22:09:28.738Z,99681.50
2023-01-26T22:11:56.564Z,99684.13
2023-01-26T22:14:26.577Z,99680.53
2023-01-26T22:16:54.555Z,99673.91
2023-01-26T22:19:22.369Z,99669.22
2023-01-26T22:21:50.220Z,99673.66
2023-01-26T22:24:18.439Z,99672.00
2023-01-26T22:26:46.403Z,99671.16
2023-01-26T22:29:15.066Z,99664.28
2023-01-26T22:31:42.993Z,99665.13
2023-01-26T22:34:13.866Z,99667.16
2023-01-26T22:36:43.247Z,99656.22
2023-01-26T22:39:12.646Z,99664.56
2023-01-26T22:41:40.522Z,99652.75
2023-01-26T22:44:08.485Z,99655.19
2023-01-26T22:46:37.237Z,99653.63
2023-01-26T22:49:08.122Z,99647.13
2023-01-26T22:51:38.904Z,99651.44
2023-01-26T22:54:06.929Z,99646.53
2023-01-26T22:56:34.613Z,99663.38
2023-01-26T22:59:02.517Z,99652.19
2023-01-26T23:01:32.179Z,99643.50
2023-01-26T23:04:00.803Z,99642.66
2023-01-26T23:06:28.918Z,99636.41
2023-01-26T23:08:58.595Z,99633.88
2023-01-26T23:11:27.911Z,99640.97
2023-01-26T23:13:56.396Z,99649.16
2023-01-26T23:16:24.743Z,99642.31
2023-01-26T23:18:53.357Z,99647.84
2023-01-26T23:21:21.224Z,99645.22
2023-01-26T23:23:49.213Z,99644.38
2023-01-26T23:26:17.049Z,99636.56
2023-01-26T23:28:45.303Z,99646.28
2023-01-26T23:31:14.171Z,99642.94
2023-01-26T23:33:42.340Z,99642.69
2023-01-26T23:36:10.768Z,99634.50
2023-01-26T23:38:38.758Z,99641.22
2023-01-26T23:41:06.848Z,99633.28
2023-01-26T23:43:34.834Z,99627.75
2023-01-26T23:46:02.713Z,99627.75
2023-01-26T23:48:30.662Z,99620.63
2023-01-26T23:51:00.445Z,99624.38
2023-01-26T23:53:28.647Z,99623.41
2023-01-26T23:55:56.908Z,99624.38
2023-01-26T23:58:24.692Z,99622.09
